createdAt,value
2019-04-14T00:01:57.003Z,2.85
2019-04-14T00:06:59.595Z,2.30
2019-04-14T00:12:05.848Z,2.91
2019-04-14T00:17:04.466Z,2.77
2019-04-14T00:22:07.281Z,2.68
2019-04-14T00:27:10.552Z,3.06
2019-04-14T00:32:11.697Z,2.65
2019-04-14T00:37:14.107Z,2.82
2019-04-14T00:42:15.344Z,2.74
2019-04-14T00:47:18.026Z,2.93
2019-04-14T00:52:21.173Z,2.86
2019-04-14T00:57:22.567Z,2.76
2019-04-14T01:02:25.330Z,2.75
2019-04-14T01:07:28.362Z,2.85
2019-04-14T01:12:30.000Z,2.79
2019-04-14T01:17:33.081Z,2.68
2019-04-14T01:22:34.234Z,2.99
2019-04-14T01:27:36.665Z,2.78
2019-04-14T01:32:39.479Z,2.66
2019-04-14T01:37:41.964Z,2.76
2019-04-14T01:42:44.714Z,3.25
2019-04-14T01:47:47.424Z,3.23
2019-04-14T01:52:50.181Z,2.94
2019-04-14T01:57:52.652Z,2.98
2019-04-14T02:02:55.380Z,2.89
2019-04-14T02:07:57.987Z,2.77
2019-04-14T02:13:00.636Z,2.76
2019-04-14T02:18:03.120Z,2.73
2019-04-14T02:23:04.097Z,2.92
2019-04-14T02:28:06.927Z,2.99
2019-04-14T02:33:43.080Z,2.73
2019-04-14T02:38:49.106Z,3.11
2019-04-14T02:48:53.318Z,3.20
2019-04-14T02:53:51.660Z,2.98
2019-04-14T02:58:57.131Z,2.64
2019-04-14T03:03:53.544Z,3.15
2019-04-14T03:13:52.100Z,2.90
2019-04-14T03:18:52.381Z,3.20
2019-04-14T03:23:57.906Z,3.00
2019-04-14T03:39:08.290Z,2.98
2019-04-14T03:44:03.204Z,3.15
2019-04-14T03:54:06.207Z,3.09
2019-04-14T03:58:46.605Z,3.07
2019-04-14T04:03:49.960Z,3.73
2019-04-14T04:08:51.148Z,2.87
2019-04-14T04:13:54.181Z,3.31
2019-04-14T04:19:02.507Z,2.75
2019-04-14T04:23:57.793Z,3.15
2019-04-14T04:29:00.506Z,3.00
2019-04-14T04:34:03.848Z,2.82
2019-04-14T04:39:06.293Z,3.14
2019-04-14T04:44:09.416Z,2.76
2019-04-14T04:49:16.477Z,2.81
2019-04-14T04:54:14.614Z,2.81
2019-04-14T04:59:16.982Z,3.13
2019-04-14T05:04:18.054Z,2.73
2019-04-14T05:09:21.078Z,2.73
2019-04-14T05:14:24.057Z,2.63
2019-04-14T05:19:30.363Z,2.74
2019-04-14T05:24:28.983Z,2.75
2019-04-14T05:29:29.888Z,2.73
2019-04-14T05:34:32.677Z,2.83
2019-04-14T05:39:35.450Z,2.40
2019-04-14T05:44:38.248Z,2.59
2019-04-14T05:49:45.514Z,2.98
2019-04-14T05:54:42.556Z,2.97
2019-04-14T05:59:46.112Z,2.78
2019-04-14T06:04:48.162Z,2.77
2019-04-14T06:09:49.048Z,2.95
2019-04-14T06:14:51.658Z,2.56
2019-04-14T06:19:54.267Z,2.60
2019-04-14T06:24:57.116Z,2.48
2019-04-14T06:29:59.618Z,2.70
2019-04-14T06:35:02.459Z,2.69
2019-04-14T06:40:05.297Z,2.67
2019-04-14T06:45:07.809Z,2.42
2019-04-14T06:50:10.758Z,2.39
2019-04-14T06:55:13.430Z,2.68
2019-04-14T07:00:16.318Z,2.39
2019-04-14T07:05:19.460Z,2.16
2019-04-14T07:10:22.359Z,1.90
2019-04-14T07:15:25.166Z,1.93
2019-04-14T07:20:27.830Z,1.94
2019-04-14T07:25:30.641Z,2.04
2019-04-14T07:30:33.276Z,1.87
2019-04-14T07:35:35.930Z,2.01
2019-04-14T07:40:38.453Z,2.08
2019-04-14T07:45:41.197Z,1.80
2019-04-14T07:50:43.752Z,1.80
2019-04-14T07:55:46.416Z,2.00
2019-04-14T08:00:49.045Z,2.00
2019-04-14T08:05:51.713Z,2.02
2019-04-14T08:10:54.538Z,2.03
2019-04-14T08:15:57.160Z,1.85
2019-04-14T08:20:59.927Z,1.93
2019-04-14T08:26:02.723Z,1.80
2019-04-14T08:31:05.211Z,1.67
2019-04-14T08:36:08.687Z,1.72
2019-04-14T08:41:11.171Z,1.48
2019-04-14T08:46:13.748Z,1.47
2019-04-14T08:51:18.176Z,1.74
2019-04-14T08:56:20.756Z,1.61
2019-04-14T09:01:24.040Z,1.71
2019-04-14T09:06:26.527Z,1.71
2019-04-14T09:11:29.216Z,1.69
2019-04-14T09:16:31.890Z,1.89
2019-04-14T09:21:34.312Z,1.41
2019-04-14T09:26:36.841Z,1.55
2019-04-14T09:31:39.282Z,1.50
2019-04-14T09:36:41.995Z,1.74
2019-04-14T09:41:44.420Z,1.80
2019-04-14T09:46:47.006Z,1.54
2019-04-14T09:51:49.518Z,1.79
2019-04-14T09:56:52.109Z,1.65
2019-04-14T10:01:54.562Z,1.98
2019-04-14T10:06:57.468Z,1.89
2019-04-14T10:11:59.931Z,1.81
2019-04-14T10:17:02.498Z,1.68
2019-04-14T10:22:05.113Z,1.54
2019-04-14T10:27:07.762Z,1.68
2019-04-14T10:32:11.017Z,1.73
2019-04-14T10:37:13.841Z,1.53
2019-04-14T10:42:16.562Z,1.55
2019-04-14T10:47:19.179Z,1.40
2019-04-14T10:52:21.898Z,1.66
2019-04-14T10:57:24.591Z,1.40
2019-04-14T11:02:27.257Z,1.50
2019-04-14T11:07:30.208Z,1.38
2019-04-14T11:12:32.701Z,1.28
2019-04-14T11:17:35.468Z,1.37
2019-04-14T11:22:39.293Z,1.31
2019-04-14T11:27:41.649Z,1.15
2019-04-14T11:32:44.249Z,1.09
2019-04-14T11:37:47.001Z,1.13
2019-04-14T11:42:52.460Z,1.25
2019-04-14T11:47:51.766Z,1.14
2019-04-14T11:52:54.487Z,1.15
2019-04-14T11:57:57.036Z,1.14
2019-04-14T12:02:59.486Z,1.30
2019-04-14T12:08:01.957Z,1.10
2019-04-14T12:13:04.709Z,0.88
2019-04-14T12:18:07.670Z,1.17
2019-04-14T12:23:10.411Z,1.11
2019-04-14T12:28:14.481Z,1.22
2019-04-14T12:33:16.992Z,0.98
2019-04-14T12:38:19.559Z,1.18
2019-04-14T12:43:22.060Z,1.01
2019-04-14T12:48:24.854Z,1.10
2019-04-14T12:53:27.342Z,1.11
2019-04-14T12:58:29.999Z,1.05
2019-04-14T13:03:32.894Z,1.04
2019-04-14T13:08:35.427Z,1.11
2019-04-14T13:13:38.123Z,1.23
2019-04-14T13:18:40.606Z,1.02
2019-04-14T13:23:43.391Z,0.89
2019-04-14T13:28:45.936Z,1.11
2019-04-14T13:33:47.541Z,1.07
2019-04-14T13:38:50.424Z,1.01
2019-04-14T13:43:52.020Z,1.11
2019-04-14T13:48:54.686Z,1.12
2019-04-14T13:53:57.430Z,1.04
2019-04-14T13:59:00.165Z,1.05
2019-04-14T14:04:03.122Z,1.14
2019-04-14T14:09:05.838Z,0.98
2019-04-14T14:14:08.581Z,1.05
2019-04-14T14:19:11.139Z,1.11
2019-04-14T14:24:13.735Z,0.99
2019-04-14T14:29:16.451Z,1.29
2019-04-14T14:34:19.182Z,1.19
2019-04-14T14:39:21.884Z,0.98
2019-04-14T14:44:24.509Z,1.11
2019-04-14T14:49:27.017Z,1.06
2019-04-14T14:54:30.010Z,1.02
2019-04-14T14:59:32.571Z,1.04
2019-04-14T15:04:35.424Z,1.11
2019-04-14T15:09:37.991Z,1.18
2019-04-14T15:14:40.623Z,1.02
2019-04-14T15:19:43.368Z,1.00
2019-04-14T15:24:45.976Z,0.96
2019-04-14T15:29:48.406Z,1.04
2019-04-14T15:34:50.939Z,1.09
2019-04-14T15:39:53.450Z,0.89
2019-04-14T15:44:56.058Z,1.07
2019-04-14T15:49:58.730Z,1.03
2019-04-14T15:55:01.565Z,0.89
2019-04-14T16:00:04.096Z,0.84
2019-04-14T16:05:06.670Z,1.48
2019-04-14T16:10:12.466Z,2.06
2019-04-14T16:15:16.038Z,1.51
2019-04-14T16:20:18.760Z,1.35
2019-04-14T16:25:22.724Z,1.02
2019-04-14T16:30:25.427Z,1.15
2019-04-14T16:35:28.320Z,1.10
2019-04-14T16:40:31.313Z,0.93
2019-04-14T16:45:33.804Z,1.03
2019-04-14T16:50:36.469Z,0.87
2019-04-14T16:55:39.277Z,0.94
2019-04-14T17:00:41.781Z,0.91
2019-04-14T17:05:44.395Z,0.89
2019-04-14T17:10:47.153Z,0.80
2019-04-14T17:15:49.955Z,0.81
2019-04-14T17:20:52.790Z,0.88
2019-04-14T17:25:55.434Z,0.98
2019-04-14T17:30:57.927Z,0.86
2019-04-14T17:36:01.858Z,0.82
2019-04-14T17:41:04.719Z,0.78
2019-04-14T17:46:07.575Z,0.88
2019-04-14T17:51:10.390Z,1.18
2019-04-14T17:56:12.178Z,1.21
2019-04-14T18:01:13.684Z,0.97
2019-04-14T18:06:16.306Z,1.06
2019-04-14T18:11:18.990Z,1.00
2019-04-14T18:16:21.669Z,1.12
2019-04-14T18:21:24.242Z,1.06
2019-04-14T18:26:31.784Z,1.16
2019-04-14T18:31:33.229Z,1.12
2019-04-14T18:36:35.941Z,1.31
2019-04-14T18:41:38.546Z,1.04
2019-04-14T18:46:41.562Z,1.10
2019-04-14T18:51:44.075Z,1.25
2019-04-14T18:56:46.650Z,1.35
2019-04-14T19:01:49.475Z,1.52
2019-04-14T19:06:52.084Z,1.54
2019-04-14T19:11:54.686Z,1.47
2019-04-14T19:16:57.767Z,1.19
2019-04-14T19:22:00.582Z,1.24
2019-04-14T19:27:03.237Z,1.39
2019-04-14T19:32:04.398Z,1.42
2019-04-14T19:37:06.909Z,1.58
2019-04-14T19:42:09.777Z,1.80
2019-04-14T19:47:12.418Z,1.73
2019-04-14T19:52:13.652Z,1.81
2019-04-14T19:57:16.280Z,1.82
2019-04-14T20:02:18.828Z,1.83
2019-04-14T20:07:21.729Z,1.87
2019-04-14T20:12:24.218Z,1.63
2019-04-14T20:17:27.030Z,1.62
2019-04-14T20:22:29.651Z,1.79
2019-04-14T20:27:32.284Z,1.91
2019-04-14T20:32:36.087Z,1.96
2019-04-14T20:37:38.822Z,1.99
2019-04-14T20:42:41.678Z,2.02
2019-04-14T20:47:44.303Z,1.71
2019-04-14T20:52:46.813Z,1.88
2019-04-14T20:57:49.395Z,1.95
2019-04-14T21:02:51.861Z,2.25
2019-04-14T21:07:54.509Z,2.17
2019-04-14T21:12:57.152Z,1.87
2019-04-14T21:17:59.882Z,1.70
2019-04-14T21:23:02.434Z,1.83
2019-04-14T21:28:05.061Z,1.67
2019-04-14T21:33:07.649Z,1.89
2019-04-14T21:38:10.433Z,1.81
2019-04-14T21:43:13.798Z,1.82
2019-04-14T21:48:16.330Z,1.83
2019-04-14T21:53:18.845Z,1.74
2019-04-14T21:58:22.658Z,1.83
2019-04-14T22:03:25.348Z,2.58
2019-04-14T22:08:28.247Z,2.07
2019-04-14T22:13:30.761Z,2.09
2019-04-14T22:18:33.545Z,2.13
2019-04-14T22:23:36.427Z,2.02
2019-04-14T22:28:39.321Z,2.15
2019-04-14T22:33:42.516Z,2.21
2019-04-14T22:38:45.626Z,2.25
2019-04-14T22:43:48.430Z,1.86
2019-04-14T22:48:51.302Z,2.01
2019-04-14T22:53:54.238Z,2.15
2019-04-14T22:58:57.399Z,2.06
2019-04-14T23:04:00.218Z,2.09
2019-04-14T23:09:03.419Z,2.54
2019-04-14T23:14:06.363Z,1.97
2019-04-14T23:19:09.315Z,2.01
2019-04-14T23:24:12.393Z,2.34
2019-04-14T23:29:15.145Z,2.24
2019-04-14T23:34:18.084Z,2.24
2019-04-14T23:39:21.120Z,2.56
2019-04-14T23:44:23.800Z,2.31
2019-04-14T23:49:26.609Z,2.25
2019-04-14T23:54:29.569Z,2.53
2019-04-14T23:59:32.388Z,2.16
